sensor_id;sensor_type;location;lat;lon;timestamp;pressure;altitude;pressure_sealevel;temperature;humidity
73151;BME280;61354;50.758;6.106;2022-07-23T00:02:24;99464.59;;;16.97;89.65
73151;BME280;61354;50.758;6.106;2022-07-23T00:04:50;99465.78;;;17.00;88.89
73151;BME280;61354;50.758;6.106;2022-07-23T00:07:15;99454.19;;;17.01;88.98
73151;BME280;61354;50.758;6.106;2022-07-23T00:09:41;99456.63;;;17.06;87.83
73151;BME280;61354;50.758;6.106;2022-07-23T00:12:06;99450.53;;;16.90;89.24
73151;BME280;61354;50.758;6.106;2022-07-23T00:14:32;99439.25;;;16.83;89.98
73151;BME280;61354;50.758;6.106;2022-07-23T00:16:57;99439.75;;;17.03;88.95
73151;BME280;61354;50.758;6.106;2022-07-23T00:19:23;99432.56;;;17.05;88.66
73151;BME280;61354;50.758;6.106;2022-07-23T00:21:49;99441.75;;;16.99;88.42
73151;BME280;61354;50.758;6.106;2022-07-23T00:24:14;99444.53;;;16.88;88.86
73151;BME280;61354;50.758;6.106;2022-07-23T00:26:39;99446.50;;;16.87;88.55
73151;BME280;61354;50.758;6.106;2022-07-23T00:29:05;99444.13;;;16.93;88.49
73151;BME280;61354;50.758;6.106;2022-07-23T00:31:30;99451.47;;;16.53;90.53
73151;BME280;61354;50.758;6.106;2022-07-23T00:33:56;99455.94;;;16.61;90.28
73151;BME280;61354;50.758;6.106;2022-07-23T00:36:23;99458.34;;;16.59;90.89
73151;BME280;61354;50.758;6.106;2022-07-23T00:38:49;99453.16;;;16.65;90.55
73151;BME280;61354;50.758;6.106;2022-07-23T00:41:15;99455.22;;;16.72;90.36
73151;BME280;61354;50.758;6.106;2022-07-23T00:43:41;99454.44;;;16.75;90.72
73151;BME280;61354;50.758;6.106;2022-07-23T00:46:06;99456.50;;;16.85;89.30
73151;BME280;61354;50.758;6.106;2022-07-23T00:48:32;99454.53;;;16.89;89.99
73151;BME280;61354;50.758;6.106;2022-07-23T00:50:57;99445.34;;;16.92;88.91
73151;BME280;61354;50.758;6.106;2022-07-23T00:53:23;99455.34;;;16.93;89.16
73151;BME280;61354;50.758;6.106;2022-07-23T00:55:49;99454.50;;;16.82;89.80
73151;BME280;61354;50.758;6.106;2022-07-23T00:58:16;99452.75;;;16.66;90.07
73151;BME280;61354;50.758;6.106;2022-07-23T01:00:41;99456.50;;;16.81;89.83
73151;BME280;61354;50.758;6.106;2022-07-23T01:03:07;99458.13;;;16.86;88.89
73151;BME280;61354;50.758;6.106;2022-07-23T01:05:33;99455.28;;;16.82;89.19
73151;BME280;61354;50.758;6.106;2022-07-23T01:07:58;99442.50;;;16.85;88.63
73151;BME280;61354;50.758;6.106;2022-07-23T01:10:25;99452.09;;;16.80;88.75
73151;BME280;61354;50.758;6.106;2022-07-23T01:12:58;99439.56;;;16.71;88.98
73151;BME280;61354;50.758;6.106;2022-07-23T01:15:23;99439.94;;;16.65;88.99
73151;BME280;61354;50.758;6.106;2022-07-23T01:17:49;99436.28;;;16.58;89.24
73151;BME280;61354;50.758;6.106;2022-07-23T01:20:15;99432.69;;;16.57;89.61
73151;BME280;61354;50.758;6.106;2022-07-23T01:22:40;99435.47;;;16.57;89.53
73151;BME280;61354;50.758;6.106;2022-07-23T01:25:06;99435.47;;;16.57;89.97
73151;BME280;61354;50.758;6.106;2022-07-23T01:27:32;99439.13;;;16.61;90.04
73151;BME280;61354;50.758;6.106;2022-07-23T01:29:59;99431.09;;;16.60;89.51
73151;BME280;61354;50.758;6.106;2022-07-23T01:32:25;99437.50;;;16.60;89.48
73151;BME280;61354;50.758;6.106;2022-07-23T01:34:50;99433.44;;;16.54;88.93
73151;BME280;61354;50.758;6.106;2022-07-23T01:37:16;99434.19;;;16.44;90.23
73151;BME280;61354;50.758;6.106;2022-07-23T01:39:42;99440.22;;;16.46;90.00
73151;BME280;61354;50.758;6.106;2022-07-23T01:42:07;99435.84;;;16.49;89.90
73151;BME280;61354;50.758;6.106;2022-07-23T01:44:33;99428.22;;;16.49;89.36
73151;BME280;61354;50.758;6.106;2022-07-23T01:46:58;99420.59;;;16.46;89.72
73151;BME280;61354;50.758;6.106;2022-07-23T01:49:23;99418.16;;;16.41;90.10
73151;BME280;61354;50.758;6.106;2022-07-23T01:51:49;99419.72;;;16.35;89.79
73151;BME280;61354;50.758;6.106;2022-07-23T01:54:32;99413.34;;;16.41;89.27
73151;BME280;61354;50.758;6.106;2022-07-23T01:56:58;99416.56;;;16.40;88.84
73151;BME280;61354;50.758;6.106;2022-07-23T01:59:25;99422.06;;;16.29;89.61
73151;BME280;61354;50.758;6.106;2022-07-23T02:01:51;99422.06;;;16.26;90.17
73151;BME280;61354;50.758;6.106;2022-07-23T02:04:21;99425.25;;;16.24;90.17
73151;BME280;61354;50.758;6.106;2022-07-23T02:06:47;99421.88;;;16.04;90.76
73151;BME280;61354;50.758;6.106;2022-07-23T02:09:13;99410.44;;;16.24;89.51
73151;BME280;61354;50.758;6.106;2022-07-23T02:11:38;99413.25;;;16.24;88.84
73151;BME280;61354;50.758;6.106;2022-07-23T02:14:04;99414.81;;;16.21;89.21
73151;BME280;61354;50.758;6.106;2022-07-23T02:16:30;99409.22;;;16.21;89.37
73151;BME280;61354;50.758;6.106;2022-07-23T02:18:55;99416.72;;;16.06;89.42
73151;BME280;61354;50.758;6.106;2022-07-23T02:21:21;99408.38;;;16.13;89.32
73151;BME280;61354;50.758;6.106;2022-07-23T02:23:46;99412.38;;;16.16;88.66
73151;BME280;61354;50.758;6.106;2022-07-23T02:26:12;99413.97;;;16.13;89.05
73151;BME280;61354;50.758;6.106;2022-07-23T02:28:37;99413.13;;;16.06;88.90
73151;BME280;61354;50.758;6.106;2022-07-23T02:31:03;99425.03;;;15.96;89.74
73151;BME280;61354;50.758;6.106;2022-07-23T02:33:29;99420.59;;;15.91;89.32
73151;BME280;61354;50.758;6.106;2022-07-23T02:35:55;99418.63;;;15.95;89.21
73151;BME280;61354;50.758;6.106;2022-07-23T02:38:21;99425.75;;;15.85;89.47
73151;BME280;61354;50.758;6.106;2022-07-23T02:40:46;99424.88;;;15.78;89.40
73151;BME280;61354;50.758;6.106;2022-07-23T02:43:12;99432.06;;;15.79;89.02
73151;BME280;61354;50.758;6.106;2022-07-23T02:45:37;99430.31;;;15.63;89.96
73151;BME280;61354;50.758;6.106;2022-07-23T02:48:03;99427.22;;;15.72;89.38
73151;BME280;61354;50.758;6.106;2022-07-23T02:50:29;99425.22;;;15.73;88.84
73151;BME280;61354;50.758;6.106;2022-07-23T02:52:54;99422.28;;;15.62;90.56
73151;BME280;61354;50.758;6.106;2022-07-23T02:55:20;99419.69;;;15.80;89.76
73151;BME280;61354;50.758;6.106;2022-07-23T02:57:45;99428.91;;;15.84;89.37
73151;BME280;61354;50.758;6.106;2022-07-23T03:00:11;99427.94;;;15.65;89.80
73151;BME280;61354;50.758;6.106;2022-07-23T03:02:36;99427.88;;;15.62;89.72
73151;BME280;61354;50.758;6.106;2022-07-23T03:05:03;99427.00;;;15.54;90.07
73151;BME280;61354;50.758;6.106;2022-07-23T03:07:28;99428.31;;;15.27;90.79
73151;BME280;61354;50.758;6.106;2022-07-23T03:09:54;99427.59;;;15.33;90.80
73151;BME280;61354;50.758;6.106;2022-07-23T03:12:19;99427.44;;;15.56;89.66
73151;BME280;61354;50.758;6.106;2022-07-23T03:14:45;99430.75;;;15.65;88.81
73151;BME280;61354;50.758;6.106;2022-07-23T03:17:10;99433.47;;;15.62;88.30
73151;BME280;61354;50.758;6.106;2022-07-23T03:19:36;99425.44;;;15.57;88.52
73151;BME280;61354;50.758;6.106;2022-07-23T03:22:02;99433.41;;;15.55;88.88
73151;BME280;61354;50.758;6.106;2022-07-23T03:24:28;99434.56;;;15.50;88.48
73151;BME280;61354;50.758;6.106;2022-07-23T03:27:14;99432.38;;;15.33;90.24
73151;BME280;61354;50.758;6.106;2022-07-23T03:29:39;99432.41;;;15.36;88.70
73151;BME280;61354;50.758;6.106;2022-07-23T03:32:05;99433.31;;;15.44;89.10
73151;BME280;61354;50.758;6.106;2022-07-23T03:34:30;99427.31;;;15.46;88.26
73151;BME280;61354;50.758;6.106;2022-07-23T03:36:56;99437.31;;;15.43;88.64
73151;BME280;61354;50.758;6.106;2022-07-23T03:39:21;99433.97;;;15.34;88.62
73151;BME280;61354;50.758;6.106;2022-07-23T03:41:47;99429.75;;;15.13;89.74
73151;BME280;61354;50.758;6.106;2022-07-23T03:44:12;99432.88;;;15.08;90.22
73151;BME280;61354;50.758;6.106;2022-07-23T03:46:38;99434.25;;;15.22;89.58
73151;BME280;61354;50.758;6.106;2022-07-23T03:49:03;99439.13;;;15.28;88.42
73151;BME280;61354;50.758;6.106;2022-07-23T03:51:29;99437.22;;;15.36;88.82
73151;BME280;61354;50.758;6.106;2022-07-23T03:53:54;99432.03;;;15.38;88.57
73151;BME280;61354;50.758;6.106;2022-07-23T03:56:21;99439.50;;;15.27;89.33
73151;BME280;61354;50.758;6.106;2022-07-23T03:58:47;99439.66;;;15.41;88.65
73151;BME280;61354;50.758;6.106;2022-07-23T04:01:12;99444.53;;;15.48;88.85
73151;BME280;61354;50.758;6.106;2022-07-23T04:03:38;99442.09;;;15.46;89.36
73151;BME280;61354;50.758;6.106;2022-07-23T04:06:04;99447.38;;;15.51;89.59
73151;BME280;61354;50.758;6.106;2022-07-23T04:08:29;99441.84;;;15.58;89.23
73151;BME280;61354;50.758;6.106;2022-07-23T04:10:55;99455.34;;;15.49;89.80
73151;BME280;61354;50.758;6.106;2022-07-23T04:13:20;99452.00;;;15.36;90.88
73151;BME280;61354;50.758;6.106;2022-07-23T04:15:46;99457.19;;;15.34;91.37
73151;BME280;61354;50.758;6.106;2022-07-23T04:18:11;99463.69;;;15.46;91.34
73151;BME280;61354;50.758;6.106;2022-07-23T04:20:37;99459.69;;;15.43;92.17
73151;BME280;61354;50.758;6.106;2022-07-23T04:23:02;99467.84;;;15.59;91.94
73151;BME280;61354;50.758;6.106;2022-07-23T04:25:28;99458.41;;;15.71;90.81
73151;BME280;61354;50.758;6.106;2022-07-23T04:27:54;99462.47;;;15.77;90.98
73151;BME280;61354;50.758;6.106;2022-07-23T04:30:19;99466.50;;;15.83;90.50
73151;BME280;61354;50.758;6.106;2022-07-23T04:32:45;99470.59;;;15.89;90.50
73151;BME280;61354;50.758;6.106;2022-07-23T04:35:10;99472.88;;;15.80;90.58
73151;BME280;61354;50.758;6.106;2022-07-23T04:37:36;99474.50;;;15.81;90.53
73151;BME280;61354;50.758;6.106;2022-07-23T04:40:04;99476.06;;;15.78;90.77
73151;BME280;61354;50.758;6.106;2022-07-23T04:42:30;99473.06;;;15.60;91.32
73151;BME280;61354;50.758;6.106;2022-07-23T04:44:55;99483.84;;;15.25;92.85
73151;BME280;61354;50.758;6.106;2022-07-23T04:47:20;99490.97;;;15.52;91.60
73151;BME280;61354;50.758;6.106;2022-07-23T04:49:46;99495.16;;;15.65;91.10
73151;BME280;61354;50.758;6.106;2022-07-23T04:52:11;99486.38;;;15.71;91.79
73151;BME280;61354;50.758;6.106;2022-07-23T04:54:37;99494.81;;;15.40;92.59
73151;BME280;61354;50.758;6.106;2022-07-23T04:57:02;99498.38;;;15.68;91.44
73151;BME280;61354;50.758;6.106;2022-07-23T04:59:28;99502.25;;;15.59;91.64
73151;BME280;61354;50.758;6.106;2022-07-23T05:01:53;99496.06;;;15.77;91.02
73151;BME280;61354;50.758;6.106;2022-07-23T05:04:19;99494.59;;;15.90;90.42
73151;BME280;61354;50.758;6.106;2022-07-23T05:06:44;99502.59;;;15.91;90.65
73151;BME280;61354;50.758;6.106;2022-07-23T05:09:10;99498.69;;;16.00;90.37
73151;BME280;61354;50.758;6.106;2022-07-23T05:11:35;99495.47;;;15.98;89.93
73151;BME280;61354;50.758;6.106;2022-07-23T05:14:01;99494.16;;;15.88;90.85
73151;BME280;61354;50.758;6.106;2022-07-23T05:16:26;99496.31;;;16.02;90.96
73151;BME280;61354;50.758;6.106;2022-07-23T05:18:52;99497.97;;;16.06;91.08
73151;BME280;61354;50.758;6.106;2022-07-23T05:21:19;99500.00;;;16.09;90.67
73151;BME280;61354;50.758;6.106;2022-07-23T05:23:45;99502.00;;;16.12;90.47
73151;BME280;61354;50.758;6.106;2022-07-23T05:26:10;99500.41;;;16.11;90.84
73151;BME280;61354;50.758;6.106;2022-07-23T05:28:36;99499.16;;;16.05;90.31
73151;BME280;61354;50.758;6.106;2022-07-23T05:31:02;99506.41;;;16.10;90.84
73151;BME280;61354;50.758;6.106;2022-07-23T05:33:29;99498.72;;;16.03;89.66
73151;BME280;61354;50.758;6.106;2022-07-23T05:36:03;99500.28;;;15.97;90.04
73151;BME280;61354;50.758;6.106;2022-07-23T05:38:29;99514.72;;;16.03;90.69
73151;BME280;61354;50.758;6.106;2022-07-23T05:40:55;99512.16;;;15.87;90.67
73151;BME280;61354;50.758;6.106;2022-07-23T05:43:20;99520.22;;;15.92;91.34
73151;BME280;61354;50.758;6.106;2022-07-23T05:45:46;99509.91;;;16.03;90.63
73151;BME280;61354;50.758;6.106;2022-07-23T05:48:11;99522.69;;;16.01;90.39
73151;BME280;61354;50.758;6.106;2022-07-23T05:50:37;99517.31;;;15.81;91.15
73151;BME280;61354;50.758;6.106;2022-07-23T05:53:02;99525.88;;;15.99;90.97
73151;BME280;61354;50.758;6.106;2022-07-23T05:55:28;99521.22;;;16.10;91.45
73151;BME280;61354;50.758;6.106;2022-07-23T05:57:57;99516.81;;;16.09;90.94
73151;BME280;61354;50.758;6.106;2022-07-23T06:00:23;99519.53;;;16.02;91.29
73151;BME280;61354;50.758;6.106;2022-07-23T06:02:49;99527.19;;;16.09;89.70
73151;BME280;61354;50.758;6.106;2022-07-23T06:05:15;99520.13;;;15.81;90.37
73151;BME280;61354;50.758;6.106;2022-07-23T06:07:41;99529.41;;;15.89;90.60
73151;BME280;61354;50.758;6.106;2022-07-23T06:10:07;99524.38;;;16.09;90.48
73151;BME280;61354;50.758;6.106;2022-07-23T06:12:33;99521.66;;;16.16;89.93
73151;BME280;61354;50.758;6.106;2022-07-23T06:14:59;99535.59;;;15.72;90.88
73151;BME280;61354;50.758;6.106;2022-07-23T06:17:24;99527.84;;;15.95;90.05
73151;BME280;61354;50.758;6.106;2022-07-23T06:19:50;99533.94;;;16.04;89.53
73151;BME280;61354;50.758;6.106;2022-07-23T06:22:15;99527.66;;;16.14;89.04
73151;BME280;61354;50.758;6.106;2022-07-23T06:24:41;99530.84;;;16.16;90.39
73151;BME280;61354;50.758;6.106;2022-07-23T06:27:06;99530.53;;;16.22;89.91
73151;BME280;61354;50.758;6.106;2022-07-23T06:29:32;99535.81;;;16.30;90.20
73151;BME280;61354;50.758;6.106;2022-07-23T06:31:58;99535.00;;;16.30;89.93
73151;BME280;61354;50.758;6.106;2022-07-23T06:34:24;99534.31;;;16.44;89.78
73151;BME280;61354;50.758;6.106;2022-07-23T06:36:50;99539.16;;;16.47;89.72
73151;BME280;61354;50.758;6.106;2022-07-23T06:39:15;99543.13;;;16.46;89.27
73151;BME280;61354;50.758;6.106;2022-07-23T06:41:41;99539.03;;;16.36;89.34
73151;BME280;61354;50.758;6.106;2022-07-23T06:44:07;99549.44;;;16.35;89.33
73151;BME280;61354;50.758;6.106;2022-07-23T06:46:33;99546.34;;;16.48;90.37
73151;BME280;61354;50.758;6.106;2022-07-23T06:48:59;99545.88;;;16.42;90.26
73151;BME280;61354;50.758;6.106;2022-07-23T06:51:25;99552.06;;;16.62;89.69
73151;BME280;61354;50.758;6.106;2022-07-23T06:53:50;99553.84;;;16.36;90.84
73151;BME280;61354;50.758;6.106;2022-07-23T06:56:16;99553.66;;;16.59;89.79
73151;BME280;61354;50.758;6.106;2022-07-23T06:58:41;99557.34;;;16.71;90.09
73151;BME280;61354;50.758;6.106;2022-07-23T07:01:07;99556.88;;;16.61;89.03
73151;BME280;61354;50.758;6.106;2022-07-23T07:03:33;99561.72;;;16.64;88.73
73151;BME280;61354;50.758;6.106;2022-07-23T07:05:59;99556.66;;;16.81;88.84
73151;BME280;61354;50.758;6.106;2022-07-23T07:08:24;99557.88;;;16.87;89.63
73151;BME280;61354;50.758;6.106;2022-07-23T07:10:50;99562.81;;;17.04;89.23
73151;BME280;61354;50.758;6.106;2022-07-23T07:13:16;99559.16;;;17.00;89.81
73151;BME280;61354;50.758;6.106;2022-07-23T07:15:41;99557.50;;;16.85;88.26
73151;BME280;61354;50.758;6.106;2022-07-23T07:18:07;99561.47;;;16.80;90.19
73151;BME280;61354;50.758;6.106;2022-07-23T07:20:32;99563.63;;;17.01;90.16
73151;BME280;61354;50.758;6.106;2022-07-23T07:22:58;99565.34;;;17.24;89.11
73151;BME280;61354;50.758;6.106;2022-07-23T07:25:24;99572.66;;;17.39;89.68
73151;BME280;61354;50.758;6.106;2022-07-23T07:27:49;99570.66;;;17.43;88.44
73151;BME280;61354;50.758;6.106;2022-07-23T07:30:15;99567.91;;;17.50;87.99
73151;BME280;61354;50.758;6.106;2022-07-23T07:32:40;99567.84;;;17.39;86.32
73151;BME280;61354;50.758;6.106;2022-07-23T07:35:06;99569.00;;;17.35;86.77
73151;BME280;61354;50.758;6.106;2022-07-23T07:37:32;99576.63;;;17.34;83.24
73151;BME280;61354;50.758;6.106;2022-07-23T07:39:57;99578.22;;;17.32;83.96
73151;BME280;61354;50.758;6.106;2022-07-23T07:42:23;99578.28;;;17.43;84.59
73151;BME280;61354;50.758;6.106;2022-07-23T07:44:48;99579.47;;;17.38;84.57
73151;BME280;61354;50.758;6.106;2022-07-23T07:47:13;99586.38;;;17.62;85.33
73151;BME280;61354;50.758;6.106;2022-07-23T07:49:41;99592.34;;;17.46;82.98
73151;BME280;61354;50.758;6.106;2022-07-23T07:52:07;99584.75;;;17.57;85.09
73151;BME280;61354;50.758;6.106;2022-07-23T07:54:32;99596.03;;;17.64;83.80
73151;BME280;61354;50.758;6.106;2022-07-23T07:56:58;99599.19;;;17.56;81.08
73151;BME280;61354;50.758;6.106;2022-07-23T07:59:24;99593.66;;;17.74;81.72
73151;BME280;61354;50.758;6.106;2022-07-23T08:01:50;99594.94;;;17.87;82.91
73151;BME280;61354;50.758;6.106;2022-07-23T08:04:16;99596.53;;;17.81;80.69
73151;BME280;61354;50.758;6.106;2022-07-23T08:06:41;99605.34;;;17.76;80.95
73151;BME280;61354;50.758;6.106;2022-07-23T08:09:07;99607.78;;;17.84;83.28
73151;BME280;61354;50.758;6.106;2022-07-23T08:11:32;99609.44;;;17.96;82.90
73151;BME280;61354;50.758;6.106;2022-07-23T08:13:58;99598.59;;;18.02;81.57
73151;BME280;61354;50.758;6.106;2022-07-23T08:16:23;99599.41;;;18.02;81.77
73151;BME280;61354;50.758;6.106;2022-07-23T08:18:49;99600.63;;;18.16;81.17
73151;BME280;61354;50.758;6.106;2022-07-23T08:21:14;99596.25;;;18.22;82.35
73151;BME280;61354;50.758;6.106;2022-07-23T08:23:40;99592.63;;;18.28;81.41
73151;BME280;61354;50.758;6.106;2022-07-23T08:26:05;99607.47;;;18.14;80.45
73151;BME280;61354;50.758;6.106;2022-07-23T08:28:31;99603.50;;;18.44;82.47
73151;BME280;61354;50.758;6.106;2022-07-23T08:31:00;99609.50;;;18.32;79.64
73151;BME280;61354;50.758;6.106;2022-07-23T08:33:25;99614.31;;;18.21;80.30
73151;BME280;61354;50.758;6.106;2022-07-23T08:35:51;99605.88;;;18.28;79.40
73151;BME280;61354;50.758;6.106;2022-07-23T08:38:22;99613.13;;;18.25;79.63
73151;BME280;61354;50.758;6.106;2022-07-23T08:40:50;99607.44;;;18.00;78.70
73151;BME280;61354;50.758;6.106;2022-07-23T08:43:23;99615.50;;;18.20;76.69
73151;BME280;61354;50.758;6.106;2022-07-23T08:45:52;99615.50;;;18.20;73.74
73151;BME280;61354;50.758;6.106;2022-07-23T08:48:20;99619.94;;;18.28;77.76
73151;BME280;61354;50.758;6.106;2022-07-23T08:50:57;99609.91;;;18.30;78.12
73151;BME280;61354;50.758;6.106;2022-07-23T08:53:24;99619.13;;;18.17;76.19
73151;BME280;61354;50.758;6.106;2022-07-23T08:55:53;99617.94;;;18.28;76.11
73151;BME280;61354;50.758;6.106;2022-07-23T08:58:19;99618.78;;;18.43;74.99
73151;BME280;61354;50.758;6.106;2022-07-23T09:00:46;99617.56;;;18.48;77.12
73151;BME280;61354;50.758;6.106;2022-07-23T09:03:18;99618.41;;;18.70;77.27
73151;BME280;61354;50.758;6.106;2022-07-23T09:05:44;99620.81;;;18.68;74.43
73151;BME280;61354;50.758;6.106;2022-07-23T09:08:14;99627.66;;;18.77;75.00
73151;BME280;61354;50.758;6.106;2022-07-23T09:13:37;99627.28;;;18.72;74.09
73151;BME280;61354;50.758;6.106;2022-07-23T09:21:19;99624.88;;;18.88;72.18
73151;BME280;61354;50.758;6.106;2022-07-23T09:23:47;99622.44;;;18.94;70.50
73151;BME280;61354;50.758;6.106;2022-07-23T09:26:40;99623.66;;;18.96;72.32
73151;BME280;61354;50.758;6.106;2022-07-23T09:29:10;99613.19;;;19.00;73.44
73151;BME280;61354;50.758;6.106;2022-07-23T09:31:56;99614.00;;;19.01;72.36
73151;BME280;61354;50.758;6.106;2022-07-23T09:34:33;99609.56;;;19.07;72.67
73151;BME280;61354;50.758;6.106;2022-07-23T09:37:18;99620.44;;;19.08;70.42
73151;BME280;61354;50.758;6.106;2022-07-23T09:39:46;99613.97;;;19.19;72.21
73151;BME280;61354;50.758;6.106;2022-07-23T09:42:14;99615.56;;;19.34;70.93
73151;BME280;61354;50.758;6.106;2022-07-23T09:44:41;99617.16;;;19.28;65.85
73151;BME280;61354;50.758;6.106;2022-07-23T09:47:07;99611.56;;;19.21;65.29
73151;BME280;61354;50.758;6.106;2022-07-23T09:49:33;99613.97;;;19.33;70.99
73151;BME280;61354;50.758;6.106;2022-07-23T09:52:00;99616.72;;;19.51;71.67
73151;BME280;61354;50.758;6.106;2022-07-23T09:54:35;99622.38;;;19.47;70.54
73151;BME280;61354;50.758;6.106;2022-07-23T09:57:07;99609.88;;;19.52;70.98
73151;BME280;61354;50.758;6.106;2022-07-23T09:59:37;99605.84;;;19.64;70.10
73151;BME280;61354;50.758;6.106;2022-07-23T10:02:06;99609.06;;;19.51;67.37
73151;BME280;61354;50.758;6.106;2022-07-23T10:04:32;99609.00;;;19.80;68.99
73151;BME280;61354;50.758;6.106;2022-07-23T10:07:03;99613.06;;;19.72;65.98
73151;BME280;61354;50.758;6.106;2022-07-23T10:09:33;99607.44;;;19.72;65.89
73151;BME280;61354;50.758;6.106;2022-07-23T10:12:01;99605.81;;;19.56;64.72
73151;BME280;61354;50.758;6.106;2022-07-23T10:14:33;99610.63;;;19.77;66.38
73151;BME280;61354;50.758;6.106;2022-07-23T10:17:03;99611.38;;;19.92;66.40
73151;BME280;61354;50.758;6.106;2022-07-23T10:19:30;99614.19;;;19.96;70.32
73151;BME280;61354;50.758;6.106;2022-07-23T10:22:00;99611.22;;;20.21;65.38
73151;BME280;61354;50.758;6.106;2022-07-23T10:35:19;99608.88;;;20.05;61.47
73151;BME280;61354;50.758;6.106;2022-07-23T10:37:53;99612.00;;;20.25;62.68
73151;BME280;61354;50.758;6.106;2022-07-23T10:40:22;99608.31;;;20.31;61.98
73151;BME280;61354;50.758;6.106;2022-07-23T10:42:52;99615.53;;;20.36;62.43
73151;BME280;61354;50.758;6.106;2022-07-23T10:45:30;99606.22;;;20.46;64.14
73151;BME280;61354;50.758;6.106;2022-07-23T10:48:17;99601.75;;;20.52;64.77
73151;BME280;61354;50.758;6.106;2022-07-23T10:50:44;99606.22;;;20.46;61.88
73151;BME280;61354;50.758;6.106;2022-07-23T10:53:13;99605.47;;;20.35;56.43
73151;BME280;61354;50.758;6.106;2022-07-23T10:55:49;99605.44;;;20.49;64.11
73151;BME280;61354;50.758;6.106;2022-07-23T10:58:21;99606.09;;;20.68;58.57
73151;BME280;61354;50.758;6.106;2022-07-23T11:00:47;99600.25;;;20.89;59.01
73151;BME280;61354;50.758;6.106;2022-07-23T11:03:29;99604.44;;;20.74;54.05
73151;BME280;61354;50.758;6.106;2022-07-23T11:05:54;99612.56;;;20.65;55.28
73151;BME280;61354;50.758;6.106;2022-07-23T11:08:20;99602.81;;;20.73;57.82
73151;BME280;61354;50.758;6.106;2022-07-23T11:11:07;99606.00;;;20.82;53.48
73151;BME280;61354;50.758;6.106;2022-07-23T11:13:42;99607.00;;;21.02;56.53
73151;BME280;61354;50.758;6.106;2022-07-23T11:26:56;99603.97;;;21.24;57.64
73151;BME280;61354;50.758;6.106;2022-07-23T11:31:54;99603.06;;;21.38;56.34
73151;BME280;61354;50.758;6.106;2022-07-23T11:34:39;99598.25;;;21.34;53.12
73151;BME280;61354;50.758;6.106;2022-07-23T11:37:08;99603.50;;;21.36;55.10
73151;BME280;61354;50.758;6.106;2022-07-23T11:39:34;99601.84;;;21.35;55.08
73151;BME280;61354;50.758;6.106;2022-07-23T11:42:02;99601.50;;;21.33;54.55
73151;BME280;61354;50.758;6.106;2022-07-23T11:47:01;99603.72;;;21.52;54.06
73151;BME280;61354;50.758;6.106;2022-07-23T11:49:28;99600.53;;;21.47;54.88
73151;BME280;61354;50.758;6.106;2022-07-23T11:52:13;99604.13;;;21.51;55.66
73151;BME280;61354;50.758;6.106;2022-07-23T11:57:13;99603.75;;;21.49;51.71
73151;BME280;61354;50.758;6.106;2022-07-23T11:59:39;99605.19;;;21.60;52.15
73151;BME280;61354;50.758;6.106;2022-07-23T12:02:06;99603.59;;;21.59;51.50
73151;BME280;61354;50.758;6.106;2022-07-23T12:04:45;99602.25;;;21.71;51.84
73151;BME280;61354;50.758;6.106;2022-07-23T12:09:52;99596.56;;;21.75;52.73
73151;BME280;61354;50.758;6.106;2022-07-23T12:12:18;99605.44;;;22.07;51.37
73151;BME280;61354;50.758;6.106;2022-07-23T12:14:48;99601.69;;;22.18;52.27
73151;BME280;61354;50.758;6.106;2022-07-23T12:17:14;99600.72;;;21.97;50.75
73151;BME280;61354;50.758;6.106;2022-07-23T12:19:40;99601.19;;;22.23;51.77
73151;BME280;61354;50.758;6.106;2022-07-23T12:22:07;99603.94;;;22.30;50.28
73151;BME280;61354;50.758;6.106;2022-07-23T12:27:23;99598.09;;;22.14;52.50
73151;BME280;61354;50.758;6.106;2022-07-23T12:29:50;99594.94;;;22.08;51.78
73151;BME280;61354;50.758;6.106;2022-07-23T12:32:23;99600.00;;;22.24;53.76
73151;BME280;61354;50.758;6.106;2022-07-23T12:35:11;99591.72;;;22.37;52.47
73151;BME280;61354;50.758;6.106;2022-07-23T12:37:39;99581.63;;;22.36;49.64
73151;BME280;61354;50.758;6.106;2022-07-23T12:42:51;99583.78;;;22.51;51.03
73151;BME280;61354;50.758;6.106;2022-07-23T12:45:18;99584.00;;;22.64;52.30
73151;BME280;61354;50.758;6.106;2022-07-23T12:50:55;99589.47;;;22.51;49.90
73151;BME280;61354;50.758;6.106;2022-07-23T12:53:36;99591.53;;;22.47;51.69
73151;BME280;61354;50.758;6.106;2022-07-23T12:56:10;99588.84;;;22.64;50.86
73151;BME280;61354;50.758;6.106;2022-07-23T12:58:44;99588.75;;;22.71;51.76
73151;BME280;61354;50.758;6.106;2022-07-23T13:04:16;99588.19;;;22.79;49.60
73151;BME280;61354;50.758;6.106;2022-07-23T13:09:11;99581.16;;;22.91;51.05
73151;BME280;61354;50.758;6.106;2022-07-23T13:11:40;99589.03;;;23.03;50.70
73151;BME280;61354;50.758;6.106;2022-07-23T13:14:06;99582.94;;;23.05;48.05
73151;BME280;61354;50.758;6.106;2022-07-23T13:16:32;99585.56;;;23.39;48.59
73151;BME280;61354;50.758;6.106;2022-07-23T13:18:58;99583.38;;;23.03;47.16
73151;BME280;61354;50.758;6.106;2022-07-23T13:21:25;99584.34;;;23.17;49.53
73151;BME280;61354;50.758;6.106;2022-07-23T13:23:51;99584.94;;;23.28;47.15
73151;BME280;61354;50.758;6.106;2022-07-23T13:26:17;99578.78;;;23.33;47.88
73151;BME280;61354;50.758;6.106;2022-07-23T13:28:43;99584.81;;;23.35;47.90
73151;BME280;61354;50.758;6.106;2022-07-23T13:31:09;99584.72;;;23.39;49.74
73151;BME280;61354;50.758;6.106;2022-07-23T13:33:34;99579.44;;;23.41;47.47
73151;BME280;61354;50.758;6.106;2022-07-23T13:36:00;99588.00;;;23.80;50.86
73151;BME280;61354;50.758;6.106;2022-07-23T13:38:26;99585.78;;;23.48;45.92
73151;BME280;61354;50.758;6.106;2022-07-23T13:40:52;99585.59;;;23.55;48.00
73151;BME280;61354;50.758;6.106;2022-07-23T13:43:20;99582.06;;;23.51;46.87
73151;BME280;61354;50.758;6.106;2022-07-23T13:45:47;99581.81;;;23.66;48.03
73151;BME280;61354;50.758;6.106;2022-07-23T13:48:14;99580.78;;;23.76;47.49
73151;BME280;61354;50.758;6.106;2022-07-23T13:50:40;99578.91;;;23.89;48.85
73151;BME280;61354;50.758;6.106;2022-07-23T13:53:20;99579.41;;;24.20;47.77
73151;BME280;61354;50.758;6.106;2022-07-23T13:55:47;99570.06;;;23.84;46.74